Azle, TX

10:15 AM CDT on June 30, 2015 (GMT -0500)
South of 199 | | Change Station
CLOSE
Current Station
Personal Weather Station
Location: Sanctuary, TX
Elevation: 800 ft
Nearby Weather Stations

Elev 800 ft 32.91 °N, 97.59 °W | Updated 10 seconds ago

Partly Cloudy
Partly Cloudy
84.1 °F
Feels Like 91 °F
N
3.0
Wind Variable Wind from SW
Gusts 9.0 mph

Today
High -- | Low -- °F
--% Chance of Precip.
Yesterday
High -- | Low -- °F
Precip. -- in
6:25 AM 8:42 PM
Waxing Gibbous, 97% visible
Pressure 30.01 in
Visibility 10.0 miles
Clouds Few 2600 ft
Scattered Clouds 12000 ft
Mostly Cloudy 25000 ft
Heat Index 91 °F
Dew Point 73 °F
Humidity 70%
Rainfall in
Snow Depth Not available.
UV 2 out of 12
Pollen 4.60 out of 12
Air Quality Not available.
Flu Activity Local Activity
METAR KNFW 301352Z 19015KT 10SM FEW026 SCT120 BKN250 27/22 A3006 RMK AO2 SLP162 T02670217 $

More Conditions Fewer Conditions

Pressure 30.01 in
Visibility 10.0 miles
Clouds Few 2600 ft
Scattered Clouds 12000 ft
Mostly Cloudy 25000 ft
Heat Index 91 °F
Dew Point 73 °F
Humidity 70%
Rainfall in
Snow Depth Not available.
UV 2 out of 12
Pollen 4.60 out of 12
Air Quality Not available.
Flu Activity Local Activity
METAR KNFW 301352Z 19015KT 10SM FEW026 SCT120 BKN250 27/22 A3006 RMK AO2 SLP162 T02670217 $

More Conditions Fewer Conditions

10-Day Weather Forecast

×

Almanac

Astronomy

Jun. 30, 2015 Rise Set
Actual Time
Civil Twilight
Nautical Twilight
Astronomical Twilight
Moon
Length of Visible Light
Length of Day
Tomorrow will be .
, % of the Moon is Illuminated

Today's Extremes

State Highs State Lows

Community

WunderPhotos

Upload Photos

1,834,017 photos uploaded!

WunderBlogs® & News

Nearby

Air Quality

  Air Quality AQ Index Pollutant
Not available.

Snow Depth

Station Depth Elevation

Earthquake Activity

City Distance Mag. Time & Date
Minimum magnitude displayed is 2.5.

Coastal Water Temperatures

Place Temperature

Stations

Nearby Weather Stations

Station Location Temp. Windchill Dew Point Humidity Wind Precip. Elev Updated Type